KFMY/FMY METAR and TAF weather

Enter ICAO airport designator
Station Type Date Time Source
KFMY METAR 2019/08/19 07:53 UTC NOAA

KFMY 190753Z AUTO 04003KT 10SM CLR 25/23 A3004 RMK AO2 SLP174 T02500228 $


Station Type Date Time Source
KFMY Decoded METAR 2019/08/19 07:53 UTC NOAA

Station name not available
Aug 19, 2019 - 03:53 AM EDT / 2019.08.19 0753 UTC
Wind: from the NE (040 degrees) at 3 MPH (3 KT):0
Visibility: 10 mile(s):0
Sky conditions: clear
Temperature: 77.0 F (25.0 C)
Dew Point: 73.0 F (22.8 C)
Relative Humidity: 87%
Pressure (altimeter): 30.04 in. Hg (1017 hPa)
ob: KFMY 190753Z AUTO 04003KT 10SM CLR 25/23 A3004 RMK AO2 SLP174 T02500228
cycle: 8

Station Type Date Time Source
KFMY TAF 2019/08/19 06:39 UTC NOAA

TAF KFMY 190537Z 1906/2006 VRB04KT P6SM FEW030 SCT250
FM191500 10007KT P6SM SCT035 SCT250
FM192000 06008KT P6SM VCTS SCT040CB SCT250
FM200200 09005KT P6SM FEW040 SCT250

Example: see airport list